sensor_id;sensor_type;location;lat;lon;timestamp;temperature;humidity
30186;DHT22;31152;49.190;8.122;2024-02-26T00:02:16;8.90;99.90
30186;DHT22;31152;49.190;8.122;2024-02-26T00:04:46;8.90;99.90
30186;DHT22;31152;49.190;8.122;2024-02-26T00:07:12;8.90;99.90
30186;DHT22;31152;49.190;8.122;2024-02-26T00:09:40;8.90;99.90
30186;DHT22;31152;49.190;8.122;2024-02-26T00:12:07;8.90;99.90
30186;DHT22;31152;49.190;8.122;2024-02-26T00:14:33;8.90;99.90
30186;DHT22;31152;49.190;8.122;2024-02-26T00:17:00;8.90;99.90
30186;DHT22;31152;49.190;8.122;2024-02-26T00:19:27;8.90;99.90
30186;DHT22;31152;49.190;8.122;2024-02-26T00:21:54;8.80;99.90
30186;DHT22;31152;49.190;8.122;2024-02-26T00:24:22;8.80;99.90
30186;DHT22;31152;49.190;8.122;2024-02-26T00:26:48;8.90;99.90
30186;DHT22;31152;49.190;8.122;2024-02-26T00:29:21;8.80;99.90
30186;DHT22;31152;49.190;8.122;2024-02-26T00:31:48;8.80;99.90
30186;DHT22;31152;49.190;8.122;2024-02-26T00:34:15;8.80;99.90
30186;DHT22;31152;49.190;8.122;2024-02-26T00:36:42;8.80;99.90
30186;DHT22;31152;49.190;8.122;2024-02-26T00:39:08;8.70;99.90
30186;DHT22;31152;49.190;8.122;2024-02-26T00:41:39;8.70;99.90
30186;DHT22;31152;49.190;8.122;2024-02-26T00:44:06;8.70;99.90
30186;DHT22;31152;49.190;8.122;2024-02-26T00:46:33;8.70;99.90
30186;DHT22;31152;49.190;8.122;2024-02-26T00:49:00;8.70;99.90
30186;DHT22;31152;49.190;8.122;2024-02-26T00:51:30;8.70;99.90
30186;DHT22;31152;49.190;8.122;2024-02-26T00:53:57;8.70;99.90
30186;DHT22;31152;49.190;8.122;2024-02-26T00:56:23;8.70;99.90
30186;DHT22;31152;49.190;8.122;2024-02-26T00:58:50;8.60;99.90
30186;DHT22;31152;49.190;8.122;2024-02-26T01:01:17;8.60;99.90
30186;DHT22;31152;49.190;8.122;2024-02-26T01:03:44;8.60;99.90
30186;DHT22;31152;49.190;8.122;2024-02-26T01:06:11;8.60;99.90
30186;DHT22;31152;49.190;8.122;2024-02-26T01:08:38;8.60;99.90
30186;DHT22;31152;49.190;8.122;2024-02-26T01:11:05;8.60;99.90
30186;DHT22;31152;49.190;8.122;2024-02-26T01:13:32;8.60;99.90
30186;DHT22;31152;49.190;8.122;2024-02-26T01:15:59;8.60;99.90
30186;DHT22;31152;49.190;8.122;2024-02-26T01:18:27;8.60;99.90
30186;DHT22;31152;49.190;8.122;2024-02-26T01:20:54;8.60;99.90
30186;DHT22;31152;49.190;8.122;2024-02-26T01:23:21;8.60;99.90
30186;DHT22;31152;49.190;8.122;2024-02-26T01:25:48;8.60;99.90
30186;DHT22;31152;49.190;8.122;2024-02-26T01:28:15;8.50;99.90
30186;DHT22;31152;49.190;8.122;2024-02-26T01:30:42;8.50;99.90
30186;DHT22;31152;49.190;8.122;2024-02-26T01:33:09;8.50;99.90
30186;DHT22;31152;49.190;8.122;2024-02-26T01:35:35;8.50;99.90
30186;DHT22;31152;49.190;8.122;2024-02-26T01:38:02;8.40;99.90
30186;DHT22;31152;49.190;8.122;2024-02-26T01:40:29;8.40;99.90
30186;DHT22;31152;49.190;8.122;2024-02-26T01:42:56;8.40;99.90
30186;DHT22;31152;49.190;8.122;2024-02-26T01:45:23;8.40;99.90
30186;DHT22;31152;49.190;8.122;2024-02-26T01:47:53;8.40;99.90
30186;DHT22;31152;49.190;8.122;2024-02-26T01:50:23;8.30;99.90
30186;DHT22;31152;49.190;8.122;2024-02-26T01:52:51;8.30;99.90
30186;DHT22;31152;49.190;8.122;2024-02-26T01:55:19;8.20;99.90
30186;DHT22;31152;49.190;8.122;2024-02-26T01:57:46;8.30;99.90
30186;DHT22;31152;49.190;8.122;2024-02-26T02:00:18;8.20;99.90
30186;DHT22;31152;49.190;8.122;2024-02-26T02:02:45;8.20;99.90
30186;DHT22;31152;49.190;8.122;2024-02-26T02:05:15;8.20;99.90
30186;DHT22;31152;49.190;8.122;2024-02-26T02:07:44;8.20;99.90
30186;DHT22;31152;49.190;8.122;2024-02-26T02:10:12;8.20;99.90
30186;DHT22;31152;49.190;8.122;2024-02-26T02:12:39;8.20;99.90
30186;DHT22;31152;49.190;8.122;2024-02-26T02:15:09;8.20;99.90
30186;DHT22;31152;49.190;8.122;2024-02-26T02:17:36;8.20;99.90
30186;DHT22;31152;49.190;8.122;2024-02-26T02:20:03;8.20;99.90
30186;DHT22;31152;49.190;8.122;2024-02-26T02:22:30;8.10;99.90
30186;DHT22;31152;49.190;8.122;2024-02-26T02:24:58;8.10;99.90
30186;DHT22;31152;49.190;8.122;2024-02-26T02:27:25;8.10;99.90
30186;DHT22;31152;49.190;8.122;2024-02-26T02:29:52;8.10;99.90
30186;DHT22;31152;49.190;8.122;2024-02-26T02:32:22;8.10;99.90
30186;DHT22;31152;49.190;8.122;2024-02-26T02:34:48;8.10;99.90
30186;DHT22;31152;49.190;8.122;2024-02-26T02:37:18;8.10;99.90
30186;DHT22;31152;49.190;8.122;2024-02-26T02:39:45;8.00;99.90
30186;DHT22;31152;49.190;8.122;2024-02-26T02:42:16;8.00;99.90
30186;DHT22;31152;49.190;8.122;2024-02-26T02:44:45;7.90;99.90
30186;DHT22;31152;49.190;8.122;2024-02-26T02:47:12;7.90;99.90
30186;DHT22;31152;49.190;8.122;2024-02-26T02:49:39;7.80;99.90
30186;DHT22;31152;49.190;8.122;2024-02-26T02:52:08;7.80;99.90
30186;DHT22;31152;49.190;8.122;2024-02-26T02:54:35;7.70;99.90
30186;DHT22;31152;49.190;8.122;2024-02-26T02:57:03;7.80;99.90
30186;DHT22;31152;49.190;8.122;2024-02-26T02:59:32;7.80;99.90
30186;DHT22;31152;49.190;8.122;2024-02-26T03:01:59;7.80;99.90
30186;DHT22;31152;49.190;8.122;2024-02-26T03:04:25;7.90;99.90
30186;DHT22;31152;49.190;8.122;2024-02-26T03:06:52;7.90;99.90
30186;DHT22;31152;49.190;8.122;2024-02-26T03:09:19;7.90;99.90
30186;DHT22;31152;49.190;8.122;2024-02-26T03:11:46;7.90;99.90
30186;DHT22;31152;49.190;8.122;2024-02-26T03:14:13;7.90;99.90
30186;DHT22;31152;49.190;8.122;2024-02-26T03:16:42;7.90;99.90
30186;DHT22;31152;49.190;8.122;2024-02-26T03:19:08;7.90;99.90
30186;DHT22;31152;49.190;8.122;2024-02-26T03:21:35;7.90;99.90
30186;DHT22;31152;49.190;8.122;2024-02-26T03:24:02;7.90;99.90
30186;DHT22;31152;49.190;8.122;2024-02-26T03:26:29;7.80;99.90
30186;DHT22;31152;49.190;8.122;2024-02-26T03:28:57;7.80;99.90
30186;DHT22;31152;49.190;8.122;2024-02-26T03:31:24;7.80;99.90
30186;DHT22;31152;49.190;8.122;2024-02-26T03:33:51;7.80;99.90
30186;DHT22;31152;49.190;8.122;2024-02-26T03:36:18;7.80;99.90
30186;DHT22;31152;49.190;8.122;2024-02-26T03:38:45;7.80;99.90
30186;DHT22;31152;49.190;8.122;2024-02-26T03:41:11;7.80;99.90
30186;DHT22;31152;49.190;8.122;2024-02-26T03:43:38;7.80;99.90
30186;DHT22;31152;49.190;8.122;2024-02-26T03:46:08;7.80;99.90
30186;DHT22;31152;49.190;8.122;2024-02-26T03:48:35;7.80;99.90
30186;DHT22;31152;49.190;8.122;2024-02-26T03:51:03;7.80;99.90
30186;DHT22;31152;49.190;8.122;2024-02-26T03:53:30;7.80;99.90
30186;DHT22;31152;49.190;8.122;2024-02-26T03:55:56;7.80;99.90
30186;DHT22;31152;49.190;8.122;2024-02-26T03:58:23;7.80;99.90
30186;DHT22;31152;49.190;8.122;2024-02-26T04:00:50;7.80;99.90
30186;DHT22;31152;49.190;8.122;2024-02-26T04:03:16;7.80;99.90
30186;DHT22;31152;49.190;8.122;2024-02-26T04:05:43;7.80;99.90
30186;DHT22;31152;49.190;8.122;2024-02-26T04:08:10;7.80;99.90
30186;DHT22;31152;49.190;8.122;2024-02-26T04:10:37;7.80;99.90
30186;DHT22;31152;49.190;8.122;2024-02-26T04:13:07;7.80;99.90
30186;DHT22;31152;49.190;8.122;2024-02-26T04:15:34;7.80;99.90
30186;DHT22;31152;49.190;8.122;2024-02-26T04:18:00;7.80;99.90
30186;DHT22;31152;49.190;8.122;2024-02-26T04:20:27;7.80;99.90
30186;DHT22;31152;49.190;8.122;2024-02-26T04:22:54;7.80;99.90
30186;DHT22;31152;49.190;8.122;2024-02-26T04:25:21;7.80;99.90
30186;DHT22;31152;49.190;8.122;2024-02-26T04:27:47;7.80;99.90
30186;DHT22;31152;49.190;8.122;2024-02-26T04:30:14;7.70;99.90
30186;DHT22;31152;49.190;8.122;2024-02-26T04:32:40;7.70;99.90
30186;DHT22;31152;49.190;8.122;2024-02-26T04:35:07;7.70;99.90
30186;DHT22;31152;49.190;8.122;2024-02-26T04:37:37;7.70;99.90
30186;DHT22;31152;49.190;8.122;2024-02-26T04:40:04;7.70;99.90
30186;DHT22;31152;49.190;8.122;2024-02-26T04:42:31;7.70;99.90
30186;DHT22;31152;49.190;8.122;2024-02-26T04:44:58;7.70;99.90
30186;DHT22;31152;49.190;8.122;2024-02-26T04:47:24;7.70;99.90
30186;DHT22;31152;49.190;8.122;2024-02-26T04:49:53;7.70;99.90
30186;DHT22;31152;49.190;8.122;2024-02-26T04:52:20;7.70;99.90
30186;DHT22;31152;49.190;8.122;2024-02-26T04:54:47;7.80;99.90
30186;DHT22;31152;49.190;8.122;2024-02-26T04:57:13;7.80;99.90
30186;DHT22;31152;49.190;8.122;2024-02-26T04:59:40;7.80;99.90
30186;DHT22;31152;49.190;8.122;2024-02-26T05:02:09;7.80;99.90
30186;DHT22;31152;49.190;8.122;2024-02-26T05:04:37;7.80;99.90
30186;DHT22;31152;49.190;8.122;2024-02-26T05:07:04;7.80;99.90
30186;DHT22;31152;49.190;8.122;2024-02-26T05:09:31;7.70;99.90
30186;DHT22;31152;49.190;8.122;2024-02-26T05:12:01;7.80;99.90
30186;DHT22;31152;49.190;8.122;2024-02-26T05:14:28;7.80;99.90
30186;DHT22;31152;49.190;8.122;2024-02-26T05:16:55;7.80;99.90
30186;DHT22;31152;49.190;8.122;2024-02-26T05:19:22;7.80;99.90
30186;DHT22;31152;49.190;8.122;2024-02-26T05:21:51;7.80;99.90
30186;DHT22;31152;49.190;8.122;2024-02-26T05:24:21;7.70;99.90
30186;DHT22;31152;49.190;8.122;2024-02-26T05:26:49;7.80;99.90
30186;DHT22;31152;49.190;8.122;2024-02-26T05:29:16;7.70;99.90
30186;DHT22;31152;49.190;8.122;2024-02-26T05:31:43;7.70;99.90
30186;DHT22;31152;49.190;8.122;2024-02-26T05:34:09;7.70;99.90
30186;DHT22;31152;49.190;8.122;2024-02-26T05:36:36;7.70;99.90
30186;DHT22;31152;49.190;8.122;2024-02-26T05:39:03;7.70;99.90
30186;DHT22;31152;49.190;8.122;2024-02-26T05:41:30;7.70;99.90
30186;DHT22;31152;49.190;8.122;2024-02-26T05:43:58;7.70;99.90
30186;DHT22;31152;49.190;8.122;2024-02-26T05:46:25;7.80;99.90
30186;DHT22;31152;49.190;8.122;2024-02-26T05:48:54;7.80;99.90
30186;DHT22;31152;49.190;8.122;2024-02-26T05:51:21;7.80;99.90
30186;DHT22;31152;49.190;8.122;2024-02-26T05:53:50;7.70;99.90
30186;DHT22;31152;49.190;8.122;2024-02-26T05:56:22;7.70;99.90
30186;DHT22;31152;49.190;8.122;2024-02-26T05:58:48;7.70;99.90
30186;DHT22;31152;49.190;8.122;2024-02-26T06:01:15;7.70;99.90
30186;DHT22;31152;49.190;8.122;2024-02-26T06:03:43;7.80;99.90
30186;DHT22;31152;49.190;8.122;2024-02-26T06:06:12;7.80;99.90
30186;DHT22;31152;49.190;8.122;2024-02-26T06:08:40;7.80;99.90
30186;DHT22;31152;49.190;8.122;2024-02-26T06:11:06;7.90;99.90
30186;DHT22;31152;49.190;8.122;2024-02-26T06:13:34;7.80;99.90
30186;DHT22;31152;49.190;8.122;2024-02-26T06:16:01;7.90;99.90
30186;DHT22;31152;49.190;8.122;2024-02-26T06:18:28;7.90;99.90
30186;DHT22;31152;49.190;8.122;2024-02-26T06:20:55;7.90;99.90
30186;DHT22;31152;49.190;8.122;2024-02-26T06:23:22;7.90;99.90
30186;DHT22;31152;49.190;8.122;2024-02-26T06:25:49;7.90;99.90
30186;DHT22;31152;49.190;8.122;2024-02-26T06:28:16;7.80;99.90
30186;DHT22;31152;49.190;8.122;2024-02-26T06:30:43;7.90;99.90
30186;DHT22;31152;49.190;8.122;2024-02-26T06:33:12;7.90;99.90
30186;DHT22;31152;49.190;8.122;2024-02-26T06:35:40;7.90;99.90
30186;DHT22;31152;49.190;8.122;2024-02-26T06:38:08;7.90;99.90
30186;DHT22;31152;49.190;8.122;2024-02-26T06:40:35;7.90;99.90
30186;DHT22;31152;49.190;8.122;2024-02-26T06:43:02;7.90;99.90
30186;DHT22;31152;49.190;8.122;2024-02-26T06:45:31;7.80;99.90
30186;DHT22;31152;49.190;8.122;2024-02-26T06:48:00;7.80;99.90
30186;DHT22;31152;49.190;8.122;2024-02-26T06:50:30;7.80;99.90
30186;DHT22;31152;49.190;8.122;2024-02-26T06:52:58;7.90;99.90
30186;DHT22;31152;49.190;8.122;2024-02-26T06:55:25;7.90;99.90
30186;DHT22;31152;49.190;8.122;2024-02-26T06:57:52;7.80;99.90
30186;DHT22;31152;49.190;8.122;2024-02-26T07:00:21;7.90;99.90
30186;DHT22;31152;49.190;8.122;2024-02-26T07:02:48;7.90;99.90
30186;DHT22;31152;49.190;8.122;2024-02-26T07:05:14;7.90;99.90
30186;DHT22;31152;49.190;8.122;2024-02-26T07:07:41;7.90;99.90
30186;DHT22;31152;49.190;8.122;2024-02-26T07:10:08;8.00;99.90
30186;DHT22;31152;49.190;8.122;2024-02-26T07:12:35;7.90;99.90
30186;DHT22;31152;49.190;8.122;2024-02-26T07:15:02;8.00;99.90
30186;DHT22;31152;49.190;8.122;2024-02-26T07:17:36;8.00;99.90
30186;DHT22;31152;49.190;8.122;2024-02-26T07:20:05;8.00;99.90
30186;DHT22;31152;49.190;8.122;2024-02-26T07:22:35;8.00;99.90
30186;DHT22;31152;49.190;8.122;2024-02-26T07:25:02;8.00;99.90
30186;DHT22;31152;49.190;8.122;2024-02-26T07:27:30;8.00;99.90
30186;DHT22;31152;49.190;8.122;2024-02-26T07:29:57;8.00;99.90
30186;DHT22;31152;49.190;8.122;2024-02-26T07:32:23;8.00;99.90
30186;DHT22;31152;49.190;8.122;2024-02-26T07:34:50;8.00;99.90
30186;DHT22;31152;49.190;8.122;2024-02-26T07:37:19;8.00;99.90
30186;DHT22;31152;49.190;8.122;2024-02-26T07:39:46;8.10;99.90
30186;DHT22;31152;49.190;8.122;2024-02-26T07:42:13;8.10;99.90
30186;DHT22;31152;49.190;8.122;2024-02-26T07:44:43;8.10;99.90
30186;DHT22;31152;49.190;8.122;2024-02-26T07:47:10;8.10;99.90
30186;DHT22;31152;49.190;8.122;2024-02-26T07:49:39;8.20;99.90
30186;DHT22;31152;49.190;8.122;2024-02-26T07:52:06;8.10;99.90
30186;DHT22;31152;49.190;8.122;2024-02-26T07:54:33;8.10;99.90
30186;DHT22;31152;49.190;8.122;2024-02-26T07:57:00;8.20;99.90
30186;DHT22;31152;49.190;8.122;2024-02-26T07:59:27;8.20;99.90
30186;DHT22;31152;49.190;8.122;2024-02-26T08:01:56;8.20;99.90
30186;DHT22;31152;49.190;8.122;2024-02-26T08:04:24;8.30;99.90
30186;DHT22;31152;49.190;8.122;2024-02-26T08:06:53;8.30;99.90
30186;DHT22;31152;49.190;8.122;2024-02-26T08:09:20;8.30;99.90
30186;DHT22;31152;49.190;8.122;2024-02-26T08:11:47;8.40;99.90
30186;DHT22;31152;49.190;8.122;2024-02-26T08:14:13;8.50;99.90
30186;DHT22;31152;49.190;8.122;2024-02-26T08:16:40;8.50;99.90
30186;DHT22;31152;49.190;8.122;2024-02-26T08:19:07;8.50;99.90
30186;DHT22;31152;49.190;8.122;2024-02-26T08:21:34;8.60;99.90
30186;DHT22;31152;49.190;8.122;2024-02-26T08:24:00;8.60;99.90
30186;DHT22;31152;49.190;8.122;2024-02-26T08:26:27;8.70;99.90
30186;DHT22;31152;49.190;8.122;2024-02-26T08:28:54;8.70;99.90
30186;DHT22;31152;49.190;8.122;2024-02-26T08:31:22;8.80;99.90
30186;DHT22;31152;49.190;8.122;2024-02-26T08:33:50;8.80;99.90
30186;DHT22;31152;49.190;8.122;2024-02-26T08:36:19;8.90;99.90
30186;DHT22;31152;49.190;8.122;2024-02-26T08:38:48;8.90;99.90
30186;DHT22;31152;49.190;8.122;2024-02-26T08:41:17;9.00;99.90
30186;DHT22;31152;49.190;8.122;2024-02-26T08:43:44;9.00;99.90
30186;DHT22;31152;49.190;8.122;2024-02-26T08:46:12;9.10;99.90
30186;DHT22;31152;49.190;8.122;2024-02-26T08:48:39;9.20;99.90
30186;DHT22;31152;49.190;8.122;2024-02-26T08:51:06;9.20;99.90
30186;DHT22;31152;49.190;8.122;2024-02-26T08:53:33;9.30;99.90
30186;DHT22;31152;49.190;8.122;2024-02-26T08:56:08;9.40;99.90
30186;DHT22;31152;49.190;8.122;2024-02-26T08:58:35;9.50;99.90
30186;DHT22;31152;49.190;8.122;2024-02-26T09:01:02;9.50;99.90
30186;DHT22;31152;49.190;8.122;2024-02-26T09:03:29;9.70;99.90
30186;DHT22;31152;49.190;8.122;2024-02-26T09:05:56;9.70;99.90
30186;DHT22;31152;49.190;8.122;2024-02-26T09:08:24;9.80;99.90
30186;DHT22;31152;49.190;8.122;2024-02-26T09:10:51;9.80;99.90
30186;DHT22;31152;49.190;8.122;2024-02-26T09:13:18;9.80;99.90
30186;DHT22;31152;49.190;8.122;2024-02-26T09:15:45;9.90;99.90
30186;DHT22;31152;49.190;8.122;2024-02-26T09:18:12;9.90;99.90
30186;DHT22;31152;49.190;8.122;2024-02-26T09:20:42;9.90;99.90
30186;DHT22;31152;49.190;8.122;2024-02-26T09:23:09;9.90;99.90
30186;DHT22;31152;49.190;8.122;2024-02-26T09:25:36;9.90;99.90
30186;DHT22;31152;49.190;8.122;2024-02-26T09:28:03;10.00;99.90
30186;DHT22;31152;49.190;8.122;2024-02-26T09:30:30;10.00;99.90
30186;DHT22;31152;49.190;8.122;2024-02-26T09:32:57;10.10;99.90
30186;DHT22;31152;49.190;8.122;2024-02-26T09:35:24;10.10;99.90
30186;DHT22;31152;49.190;8.122;2024-02-26T09:37:51;10.20;99.90
30186;DHT22;31152;49.190;8.122;2024-02-26T09:40:17;10.30;99.90
30186;DHT22;31152;49.190;8.122;2024-02-26T09:42:44;10.30;99.90
30186;DHT22;31152;49.190;8.122;2024-02-26T09:45:16;10.40;99.90
30186;DHT22;31152;49.190;8.122;2024-02-26T09:47:47;10.50;99.90
30186;DHT22;31152;49.190;8.122;2024-02-26T09:50:14;10.50;99.90
30186;DHT22;31152;49.190;8.122;2024-02-26T09:52:44;10.60;99.90
30186;DHT22;31152;49.190;8.122;2024-02-26T09:55:13;10.70;99.90
30186;DHT22;31152;49.190;8.122;2024-02-26T09:57:44;10.70;99.90
30186;DHT22;31152;49.190;8.122;2024-02-26T10:00:15;10.80;99.90
30186;DHT22;31152;49.190;8.122;2024-02-26T10:02:48;10.90;99.90
30186;DHT22;31152;49.190;8.122;2024-02-26T10:05:18;10.90;99.90
30186;DHT22;31152;49.190;8.122;2024-02-26T10:07:46;10.90;99.90
30186;DHT22;31152;49.190;8.122;2024-02-26T10:10:14;11.00;99.90
30186;DHT22;31152;49.190;8.122;2024-02-26T10:12:41;11.10;99.90
30186;DHT22;31152;49.190;8.122;2024-02-26T10:15:08;11.10;99.90
30186;DHT22;31152;49.190;8.122;2024-02-26T10:17:35;11.20;99.90
30186;DHT22;31152;49.190;8.122;2024-02-26T10:20:17;11.30;99.90
30186;DHT22;31152;49.190;8.122;2024-02-26T10:22:45;11.30;99.90
30186;DHT22;31152;49.190;8.122;2024-02-26T10:25:12;11.40;99.90
30186;DHT22;31152;49.190;8.122;2024-02-26T10:27:42;11.50;99.90
30186;DHT22;31152;49.190;8.122;2024-02-26T10:30:20;11.50;99.90
30186;DHT22;31152;49.190;8.122;2024-02-26T10:32:48;11.60;99.90
30186;DHT22;31152;49.190;8.122;2024-02-26T10:35:16;11.60;99.90
30186;DHT22;31152;49.190;8.122;2024-02-26T10:37:46;11.70;99.90
30186;DHT22;31152;49.190;8.122;2024-02-26T10:40:13;11.70;99.90
30186;DHT22;31152;49.190;8.122;2024-02-26T10:42:41;11.70;99.90
30186;DHT22;31152;49.190;8.122;2024-02-26T10:45:08;11.70;99.90
30186;DHT22;31152;49.190;8.122;2024-02-26T10:47:38;11.70;99.90
30186;DHT22;31152;49.190;8.122;2024-02-26T10:50:09;11.70;99.90
30186;DHT22;31152;49.190;8.122;2024-02-26T10:52:39;11.80;99.90
30186;DHT22;31152;49.190;8.122;2024-02-26T10:55:07;11.80;99.90
30186;DHT22;31152;49.190;8.122;2024-02-26T10:57:35;11.80;99.90
30186;DHT22;31152;49.190;8.122;2024-02-26T11:00:06;11.90;99.90
30186;DHT22;31152;49.190;8.122;2024-02-26T11:02:37;12.00;99.90
30186;DHT22;31152;49.190;8.122;2024-02-26T11:05:04;12.20;99.90
30186;DHT22;31152;49.190;8.122;2024-02-26T11:07:32;12.40;99.90
30186;DHT22;31152;49.190;8.122;2024-02-26T11:10:00;12.70;99.90
30186;DHT22;31152;49.190;8.122;2024-02-26T11:12:27;13.00;99.90
30186;DHT22;31152;49.190;8.122;2024-02-26T11:14:56;13.10;99.90
30186;DHT22;31152;49.190;8.122;2024-02-26T11:17:25;13.40;99.90
30186;DHT22;31152;49.190;8.122;2024-02-26T11:19:53;13.50;99.90
30186;DHT22;31152;49.190;8.122;2024-02-26T11:22:24;13.60;99.90
30186;DHT22;31152;49.190;8.122;2024-02-26T11:24:55;13.90;99.90
30186;DHT22;31152;49.190;8.122;2024-02-26T11:27:29;14.80;99.90
30186;DHT22;31152;49.190;8.122;2024-02-26T11:29:57;15.90;99.90
30186;DHT22;31152;49.190;8.122;2024-02-26T11:32:26;16.90;99.90
30186;DHT22;31152;49.190;8.122;2024-02-26T11:34:53;17.60;99.90
30186;DHT22;31152;49.190;8.122;2024-02-26T11:37:23;18.30;99.90
30186;DHT22;31152;49.190;8.122;2024-02-26T11:39:52;18.70;99.90
30186;DHT22;31152;49.190;8.122;2024-02-26T11:42:22;19.50;99.90
30186;DHT22;31152;49.190;8.122;2024-02-26T11:44:50;20.10;99.90
30186;DHT22;31152;49.190;8.122;2024-02-26T11:47:21;20.70;97.90
30186;DHT22;31152;49.190;8.122;2024-02-26T11:49:48;20.80;96.80
30186;DHT22;31152;49.190;8.122;2024-02-26T11:52:15;20.40;96.10
30186;DHT22;31152;49.190;8.122;2024-02-26T11:57:28;19.40;97.10
30186;DHT22;31152;49.190;8.122;2024-02-26T12:00:17;19.00;98.10
30186;DHT22;31152;49.190;8.122;2024-02-26T12:02:49;18.50;99.60
30186;DHT22;31152;49.190;8.122;2024-02-26T12:05:25;18.40;99.50
30186;DHT22;31152;49.190;8.122;2024-02-26T12:12:55;18.50;99.70
30186;DHT22;31152;49.190;8.122;2024-02-26T12:15:26;18.60;99.30
30186;DHT22;31152;49.190;8.122;2024-02-26T12:17:56;19.10;99.70
30186;DHT22;31152;49.190;8.122;2024-02-26T12:20:26;19.70;98.20
30186;DHT22;31152;49.190;8.122;2024-02-26T12:22:53;20.00;97.20
30186;DHT22;31152;49.190;8.122;2024-02-26T12:25:23;20.30;96.30
30186;DHT22;31152;49.190;8.122;2024-02-26T12:27:51;20.50;96.50
30186;DHT22;31152;49.190;8.122;2024-02-26T12:30:17;21.20;95.70
30186;DHT22;31152;49.190;8.122;2024-02-26T12:32:48;21.90;94.10
30186;DHT22;31152;49.190;8.122;2024-02-26T12:35:15;21.90;93.70
30186;DHT22;31152;49.190;8.122;2024-02-26T12:37:43;21.60;92.90
30186;DHT22;31152;49.190;8.122;2024-02-26T12:40:12;21.00;92.80
30186;DHT22;31152;49.190;8.122;2024-02-26T12:42:41;20.80;94.50
30186;DHT22;31152;49.190;8.122;2024-02-26T12:45:12;20.70;93.80
30186;DHT22;31152;49.190;8.122;2024-02-26T12:47:39;20.50;94.20
30186;DHT22;31152;49.190;8.122;2024-02-26T12:50:07;20.20;93.70
30186;DHT22;31152;49.190;8.122;2024-02-26T12:52:36;19.80;94.30
30186;DHT22;31152;49.190;8.122;2024-02-26T12:55:03;19.40;94.70
30186;DHT22;31152;49.190;8.122;2024-02-26T12:57:34;19.00;95.50
30186;DHT22;31152;49.190;8.122;2024-02-26T13:00:01;18.60;96.20
30186;DHT22;31152;49.190;8.122;2024-02-26T13:02:31;18.30;97.20
30186;DHT22;31152;49.190;8.122;2024-02-26T13:04:58;18.20;97.50
30186;DHT22;31152;49.190;8.122;2024-02-26T13:07:27;18.20;97.70
30186;DHT22;31152;49.190;8.122;2024-02-26T13:09:54;18.20;97.50
30186;DHT22;31152;49.190;8.122;2024-02-26T13:12:24;18.20;97.90
30186;DHT22;31152;49.190;8.122;2024-02-26T13:15:03;18.40;97.70
30186;DHT22;31152;49.190;8.122;2024-02-26T13:17:33;18.50;96.70
30186;DHT22;31152;49.190;8.122;2024-02-26T13:20:03;18.40;96.30
30186;DHT22;31152;49.190;8.122;2024-02-26T13:22:30;18.50;96.50
30186;DHT22;31152;49.190;8.122;2024-02-26T13:25:00;18.50;95.90
30186;DHT22;31152;49.190;8.122;2024-02-26T13:27:29;18.40;95.70
30186;DHT22;31152;49.190;8.122;2024-02-26T13:32:28;19.30;95.90
30186;DHT22;31152;49.190;8.122;2024-02-26T13:35:11;20.40;95.10
30186;DHT22;31152;49.190;8.122;2024-02-26T13:37:38;21.30;92.80
30186;DHT22;31152;49.190;8.122;2024-02-26T13:40:06;22.00;90.40
30186;DHT22;31152;49.190;8.122;2024-02-26T13:42:32;22.00;89.10
30186;DHT22;31152;49.190;8.122;2024-02-26T13:45:00;21.70;89.00
30186;DHT22;31152;49.190;8.122;2024-02-26T13:47:27;21.40;89.40
30186;DHT22;31152;49.190;8.122;2024-02-26T13:49:54;21.50;90.30
30186;DHT22;31152;49.190;8.122;2024-02-26T13:52:22;21.80;89.30
30186;DHT22;31152;49.190;8.122;2024-02-26T13:54:49;22.10;87.40
30186;DHT22;31152;49.190;8.122;2024-02-26T13:57:16;22.00;86.00
30186;DHT22;31152;49.190;8.122;2024-02-26T13:59:45;22.10;86.10
30186;DHT22;31152;49.190;8.122;2024-02-26T14:02:12;22.30;86.00
30186;DHT22;31152;49.190;8.122;2024-02-26T14:04:39;23.00;84.20
30186;DHT22;31152;49.190;8.122;2024-02-26T14:07:06;23.70;81.20
30186;DHT22;31152;49.190;8.122;2024-02-26T14:09:33;24.60;78.70
30186;DHT22;31152;49.190;8.122;2024-02-26T14:12:15;25.30;74.60
30186;DHT22;31152;49.190;8.122;2024-02-26T14:14:42;25.70;70.80
30186;DHT22;31152;49.190;8.122;2024-02-26T14:17:09;26.20;68.60
30186;DHT22;31152;49.190;8.122;2024-02-26T14:19:36;26.60;67.30
30186;DHT22;31152;49.190;8.122;2024-02-26T14:22:07;26.70;66.10
30186;DHT22;31152;49.190;8.122;2024-02-26T14:24:33;26.90;64.80
30186;DHT22;31152;49.190;8.122;2024-02-26T14:27:00;27.10;63.00
30186;DHT22;31152;49.190;8.122;2024-02-26T14:29:27;27.20;62.00
30186;DHT22;31152;49.190;8.122;2024-02-26T14:31:54;27.50;62.20
30186;DHT22;31152;49.190;8.122;2024-02-26T14:34:23;27.90;60.10
30186;DHT22;31152;49.190;8.122;2024-02-26T14:36:50;28.20;59.60
30186;DHT22;31152;49.190;8.122;2024-02-26T14:39:17;28.50;58.70
30186;DHT22;31152;49.190;8.122;2024-02-26T14:41:44;28.80;57.70
30186;DHT22;31152;49.190;8.122;2024-02-26T14:44:11;29.20;56.40
30186;DHT22;31152;49.190;8.122;2024-02-26T14:46:39;29.20;55.70
30186;DHT22;31152;49.190;8.122;2024-02-26T14:49:06;29.40;55.90
30186;DHT22;31152;49.190;8.122;2024-02-26T14:51:34;29.70;54.60
30186;DHT22;31152;49.190;8.122;2024-02-26T14:54:03;29.70;54.10
30186;DHT22;31152;49.190;8.122;2024-02-26T14:56:30;29.10;54.00
30186;DHT22;31152;49.190;8.122;2024-02-26T14:59:03;28.30;54.50
30186;DHT22;31152;49.190;8.122;2024-02-26T15:01:30;27.50;56.00
30186;DHT22;31152;49.190;8.122;2024-02-26T15:03:57;26.50;57.80
30186;DHT22;31152;49.190;8.122;2024-02-26T15:06:24;25.90;59.20
30186;DHT22;31152;49.190;8.122;2024-02-26T15:08:52;25.40;60.80
30186;DHT22;31152;49.190;8.122;2024-02-26T15:11:19;24.60;63.20
30186;DHT22;31152;49.190;8.122;2024-02-26T15:13:49;24.00;63.70
30186;DHT22;31152;49.190;8.122;2024-02-26T15:16:19;23.50;63.40
30186;DHT22;31152;49.190;8.122;2024-02-26T15:18:48;22.90;65.00
30186;DHT22;31152;49.190;8.122;2024-02-26T15:21:15;22.40;66.70
30186;DHT22;31152;49.190;8.122;2024-02-26T15:23:42;22.00;67.70
30186;DHT22;31152;49.190;8.122;2024-02-26T15:26:27;21.60;67.90
30186;DHT22;31152;49.190;8.122;2024-02-26T15:28:56;21.50;68.20
30186;DHT22;31152;49.190;8.122;2024-02-26T15:31:23;21.70;68.50
30186;DHT22;31152;49.190;8.122;2024-02-26T15:33:50;21.80;67.00
30186;DHT22;31152;49.190;8.122;2024-02-26T15:36:17;21.60;66.80
30186;DHT22;31152;49.190;8.122;2024-02-26T15:38:44;21.20;67.80
30186;DHT22;31152;49.190;8.122;2024-02-26T15:41:14;20.60;69.30
30186;DHT22;31152;49.190;8.122;2024-02-26T15:43:41;20.10;71.20
30186;DHT22;31152;49.190;8.122;2024-02-26T15:46:08;19.70;73.50
30186;DHT22;31152;49.190;8.122;2024-02-26T15:48:37;19.30;75.30
30186;DHT22;31152;49.190;8.122;2024-02-26T15:51:07;19.10;76.80
30186;DHT22;31152;49.190;8.122;2024-02-26T15:53:34;19.20;77.10
30186;DHT22;31152;49.190;8.122;2024-02-26T15:56:01;19.00;77.60